sensor_id;sensor_type;location;lat;lon;timestamp;temperature;humidity
28614;DHT22;15806;53.548;9.964;2023-12-20T00:00:18;17.40;99.90
28614;DHT22;15806;53.548;9.964;2023-12-20T00:01:58;17.30;99.90
28614;DHT22;15806;53.548;9.964;2023-12-20T00:03:39;17.30;99.90
28614;DHT22;15806;53.548;9.964;2023-12-20T00:05:19;17.20;99.90
28614;DHT22;15806;53.548;9.964;2023-12-20T00:07:00;17.10;99.90
28614;DHT22;15806;53.548;9.964;2023-12-20T00:08:40;17.10;99.90
28614;DHT22;15806;53.548;9.964;2023-12-20T00:10:21;17.10;99.90
28614;DHT22;15806;53.548;9.964;2023-12-20T00:12:01;17.00;99.90
28614;DHT22;15806;53.548;9.964;2023-12-20T00:13:42;16.90;99.90
28614;DHT22;15806;53.548;9.964;2023-12-20T00:15:23;16.80;99.90
28614;DHT22;15806;53.548;9.964;2023-12-20T00:17:03;16.80;99.90
28614;DHT22;15806;53.548;9.964;2023-12-20T00:18:44;16.70;99.90
28614;DHT22;15806;53.548;9.964;2023-12-20T00:20:24;16.70;99.90
28614;DHT22;15806;53.548;9.964;2023-12-20T00:22:05;16.60;99.90
28614;DHT22;15806;53.548;9.964;2023-12-20T00:23:45;16.60;99.90
28614;DHT22;15806;53.548;9.964;2023-12-20T00:25:26;16.50;99.90
28614;DHT22;15806;53.548;9.964;2023-12-20T00:27:06;16.40;99.90
28614;DHT22;15806;53.548;9.964;2023-12-20T00:28:47;16.40;99.90
28614;DHT22;15806;53.548;9.964;2023-12-20T00:30:28;16.40;99.90
28614;DHT22;15806;53.548;9.964;2023-12-20T00:32:08;16.30;99.90
28614;DHT22;15806;53.548;9.964;2023-12-20T00:33:49;16.20;99.90
28614;DHT22;15806;53.548;9.964;2023-12-20T00:35:29;16.20;99.90
28614;DHT22;15806;53.548;9.964;2023-12-20T00:37:10;16.00;99.90
28614;DHT22;15806;53.548;9.964;2023-12-20T00:38:50;16.00;99.90
28614;DHT22;15806;53.548;9.964;2023-12-20T00:40:31;15.90;99.90
28614;DHT22;15806;53.548;9.964;2023-12-20T00:42:11;15.90;99.90
28614;DHT22;15806;53.548;9.964;2023-12-20T00:43:52;15.90;99.90
28614;DHT22;15806;53.548;9.964;2023-12-20T00:45:33;15.90;99.90
28614;DHT22;15806;53.548;9.964;2023-12-20T00:47:13;15.90;99.90
28614;DHT22;15806;53.548;9.964;2023-12-20T00:48:54;15.90;99.90
28614;DHT22;15806;53.548;9.964;2023-12-20T00:50:35;15.80;99.90
28614;DHT22;15806;53.548;9.964;2023-12-20T00:52:15;15.70;99.90
28614;DHT22;15806;53.548;9.964;2023-12-20T00:53:56;15.70;99.90
28614;DHT22;15806;53.548;9.964;2023-12-20T00:55:36;15.60;99.90
28614;DHT22;15806;53.548;9.964;2023-12-20T00:57:17;15.60;99.90
28614;DHT22;15806;53.548;9.964;2023-12-20T00:58:57;15.50;99.90
28614;DHT22;15806;53.548;9.964;2023-12-20T01:00:38;15.50;99.90
28614;DHT22;15806;53.548;9.964;2023-12-20T01:02:18;15.40;99.90
28614;DHT22;15806;53.548;9.964;2023-12-20T01:03:59;15.40;99.90
28614;DHT22;15806;53.548;9.964;2023-12-20T01:05:39;15.30;99.90
28614;DHT22;15806;53.548;9.964;2023-12-20T01:07:20;15.20;99.90
28614;DHT22;15806;53.548;9.964;2023-12-20T01:09:00;15.20;99.90
28614;DHT22;15806;53.548;9.964;2023-12-20T01:10:41;15.10;99.90
28614;DHT22;15806;53.548;9.964;2023-12-20T01:12:21;15.10;99.90
28614;DHT22;15806;53.548;9.964;2023-12-20T01:14:02;15.10;99.90
28614;DHT22;15806;53.548;9.964;2023-12-20T01:15:42;14.90;99.90
28614;DHT22;15806;53.548;9.964;2023-12-20T01:17:23;14.90;99.90
28614;DHT22;15806;53.548;9.964;2023-12-20T01:19:03;14.80;99.90
28614;DHT22;15806;53.548;9.964;2023-12-20T01:20:44;14.70;99.90
28614;DHT22;15806;53.548;9.964;2023-12-20T01:22:24;14.50;99.90
28614;DHT22;15806;53.548;9.964;2023-12-20T01:24:05;14.40;99.90
28614;DHT22;15806;53.548;9.964;2023-12-20T01:25:45;14.40;99.90
28614;DHT22;15806;53.548;9.964;2023-12-20T01:27:26;14.20;99.90
28614;DHT22;15806;53.548;9.964;2023-12-20T01:29:06;14.00;99.90
28614;DHT22;15806;53.548;9.964;2023-12-20T01:30:47;13.90;99.90
28614;DHT22;15806;53.548;9.964;2023-12-20T01:32:27;13.80;99.90
28614;DHT22;15806;53.548;9.964;2023-12-20T01:34:08;13.70;99.90
28614;DHT22;15806;53.548;9.964;2023-12-20T01:35:48;13.60;99.90
28614;DHT22;15806;53.548;9.964;2023-12-20T01:37:29;13.50;99.90
28614;DHT22;15806;53.548;9.964;2023-12-20T01:39:09;13.30;99.90
28614;DHT22;15806;53.548;9.964;2023-12-20T01:40:50;13.20;99.90
28614;DHT22;15806;53.548;9.964;2023-12-20T01:42:30;13.00;99.90
28614;DHT22;15806;53.548;9.964;2023-12-20T01:44:11;12.90;99.90
28614;DHT22;15806;53.548;9.964;2023-12-20T01:45:51;12.80;99.90
28614;DHT22;15806;53.548;9.964;2023-12-20T01:47:32;12.70;99.90
28614;DHT22;15806;53.548;9.964;2023-12-20T01:49:13;12.60;99.90
28614;DHT22;15806;53.548;9.964;2023-12-20T01:50:54;12.60;99.90
28614;DHT22;15806;53.548;9.964;2023-12-20T01:52:35;12.40;99.90
28614;DHT22;15806;53.548;9.964;2023-12-20T01:54:15;12.30;99.90
28614;DHT22;15806;53.548;9.964;2023-12-20T01:55:58;12.20;99.90
28614;DHT22;15806;53.548;9.964;2023-12-20T01:57:42;12.20;99.90
28614;DHT22;15806;53.548;9.964;2023-12-20T01:59:23;12.20;99.90
28614;DHT22;15806;53.548;9.964;2023-12-20T02:01:04;12.10;99.90
28614;DHT22;15806;53.548;9.964;2023-12-20T02:02:45;12.00;99.90
28614;DHT22;15806;53.548;9.964;2023-12-20T02:04:26;11.90;99.90
28614;DHT22;15806;53.548;9.964;2023-12-20T02:06:07;11.80;99.90
28614;DHT22;15806;53.548;9.964;2023-12-20T02:07:48;11.70;99.90
28614;DHT22;15806;53.548;9.964;2023-12-20T02:09:29;11.60;99.90
28614;DHT22;15806;53.548;9.964;2023-12-20T02:11:10;11.60;99.90
28614;DHT22;15806;53.548;9.964;2023-12-20T02:12:51;11.50;99.90
28614;DHT22;15806;53.548;9.964;2023-12-20T02:14:31;11.50;99.90
28614;DHT22;15806;53.548;9.964;2023-12-20T02:16:12;11.40;99.90
28614;DHT22;15806;53.548;9.964;2023-12-20T02:17:52;11.40;99.90
28614;DHT22;15806;53.548;9.964;2023-12-20T02:19:33;11.30;99.90
28614;DHT22;15806;53.548;9.964;2023-12-20T02:21:14;11.30;99.90
28614;DHT22;15806;53.548;9.964;2023-12-20T02:22:55;11.20;99.90
28614;DHT22;15806;53.548;9.964;2023-12-20T02:24:35;11.20;99.90
28614;DHT22;15806;53.548;9.964;2023-12-20T02:26:16;11.10;99.90
28614;DHT22;15806;53.548;9.964;2023-12-20T02:27:57;11.10;99.90
28614;DHT22;15806;53.548;9.964;2023-12-20T02:29:37;11.10;99.90
28614;DHT22;15806;53.548;9.964;2023-12-20T02:31:21;11.10;99.90
28614;DHT22;15806;53.548;9.964;2023-12-20T02:33:03;11.10;99.90
28614;DHT22;15806;53.548;9.964;2023-12-20T02:34:48;11.10;99.90
28614;DHT22;15806;53.548;9.964;2023-12-20T02:36:28;11.00;99.90
28614;DHT22;15806;53.548;9.964;2023-12-20T02:38:09;11.00;99.90
28614;DHT22;15806;53.548;9.964;2023-12-20T02:39:50;10.90;99.90
28614;DHT22;15806;53.548;9.964;2023-12-20T02:41:30;10.90;99.90
28614;DHT22;15806;53.548;9.964;2023-12-20T02:43:11;10.80;99.90
28614;DHT22;15806;53.548;9.964;2023-12-20T02:44:51;10.80;99.90
28614;DHT22;15806;53.548;9.964;2023-12-20T02:46:32;10.70;99.90
28614;DHT22;15806;53.548;9.964;2023-12-20T02:48:12;10.70;99.90
28614;DHT22;15806;53.548;9.964;2023-12-20T02:49:52;10.60;99.90
28614;DHT22;15806;53.548;9.964;2023-12-20T02:51:33;10.70;99.90
28614;DHT22;15806;53.548;9.964;2023-12-20T02:53:14;10.50;99.90
28614;DHT22;15806;53.548;9.964;2023-12-20T02:54:54;10.50;99.90
28614;DHT22;15806;53.548;9.964;2023-12-20T02:56:35;10.50;99.90
28614;DHT22;15806;53.548;9.964;2023-12-20T02:58:15;10.50;99.90
28614;DHT22;15806;53.548;9.964;2023-12-20T02:59:56;10.40;99.90
28614;DHT22;15806;53.548;9.964;2023-12-20T03:01:43;10.40;99.90
28614;DHT22;15806;53.548;9.964;2023-12-20T03:03:23;10.40;99.90
28614;DHT22;15806;53.548;9.964;2023-12-20T03:05:04;10.30;99.90
28614;DHT22;15806;53.548;9.964;2023-12-20T03:06:45;10.30;99.90
28614;DHT22;15806;53.548;9.964;2023-12-20T03:08:25;10.30;99.90
28614;DHT22;15806;53.548;9.964;2023-12-20T03:10:06;10.30;99.90
28614;DHT22;15806;53.548;9.964;2023-12-20T03:11:47;10.20;99.90
28614;DHT22;15806;53.548;9.964;2023-12-20T03:13:27;10.20;99.90
28614;DHT22;15806;53.548;9.964;2023-12-20T03:15:08;10.20;99.90
28614;DHT22;15806;53.548;9.964;2023-12-20T03:16:51;10.20;99.90
28614;DHT22;15806;53.548;9.964;2023-12-20T03:18:32;10.20;99.90
28614;DHT22;15806;53.548;9.964;2023-12-20T03:20:12;10.10;99.90
28614;DHT22;15806;53.548;9.964;2023-12-20T03:21:53;10.10;99.90
28614;DHT22;15806;53.548;9.964;2023-12-20T03:23:33;10.10;99.90
28614;DHT22;15806;53.548;9.964;2023-12-20T03:25:14;10.10;99.90
28614;DHT22;15806;53.548;9.964;2023-12-20T03:26:54;10.00;99.90
28614;DHT22;15806;53.548;9.964;2023-12-20T03:28:36;10.10;99.90
28614;DHT22;15806;53.548;9.964;2023-12-20T03:30:16;10.10;99.90
28614;DHT22;15806;53.548;9.964;2023-12-20T03:31:57;10.00;99.90
28614;DHT22;15806;53.548;9.964;2023-12-20T03:33:37;10.00;99.90
28614;DHT22;15806;53.548;9.964;2023-12-20T03:35:18;9.90;99.90
28614;DHT22;15806;53.548;9.964;2023-12-20T03:36:58;9.90;99.90
28614;DHT22;15806;53.548;9.964;2023-12-20T03:38:39;9.90;99.90
28614;DHT22;15806;53.548;9.964;2023-12-20T03:40:20;9.80;99.90
28614;DHT22;15806;53.548;9.964;2023-12-20T03:42:00;9.80;99.90
28614;DHT22;15806;53.548;9.964;2023-12-20T03:43:41;9.80;99.90
28614;DHT22;15806;53.548;9.964;2023-12-20T03:45:21;9.80;99.90
28614;DHT22;15806;53.548;9.964;2023-12-20T03:47:02;9.80;99.90
28614;DHT22;15806;53.548;9.964;2023-12-20T03:48:42;9.80;99.90
28614;DHT22;15806;53.548;9.964;2023-12-20T03:50:23;9.80;99.90
28614;DHT22;15806;53.548;9.964;2023-12-20T03:52:04;9.80;99.90
28614;DHT22;15806;53.548;9.964;2023-12-20T03:53:44;9.80;99.90
28614;DHT22;15806;53.548;9.964;2023-12-20T03:55:25;9.80;99.90
28614;DHT22;15806;53.548;9.964;2023-12-20T03:57:05;9.80;99.90
28614;DHT22;15806;53.548;9.964;2023-12-20T03:58:46;9.80;99.90
28614;DHT22;15806;53.548;9.964;2023-12-20T04:00:26;9.90;99.90
28614;DHT22;15806;53.548;9.964;2023-12-20T04:02:07;9.80;99.90
28614;DHT22;15806;53.548;9.964;2023-12-20T04:03:47;9.80;99.90
28614;DHT22;15806;53.548;9.964;2023-12-20T04:05:28;9.80;99.90
28614;DHT22;15806;53.548;9.964;2023-12-20T04:07:08;9.70;99.90
28614;DHT22;15806;53.548;9.964;2023-12-20T04:08:49;9.80;99.90
28614;DHT22;15806;53.548;9.964;2023-12-20T04:10:29;9.70;99.90
28614;DHT22;15806;53.548;9.964;2023-12-20T04:12:10;9.70;99.90
28614;DHT22;15806;53.548;9.964;2023-12-20T04:13:50;9.70;99.90
28614;DHT22;15806;53.548;9.964;2023-12-20T04:15:30;9.70;99.90
28614;DHT22;15806;53.548;9.964;2023-12-20T04:17:11;9.70;99.90
28614;DHT22;15806;53.548;9.964;2023-12-20T04:18:51;9.70;99.90
28614;DHT22;15806;53.548;9.964;2023-12-20T04:20:32;9.70;99.90
28614;DHT22;15806;53.548;9.964;2023-12-20T04:22:12;9.70;99.90
28614;DHT22;15806;53.548;9.964;2023-12-20T04:23:53;9.70;99.90
28614;DHT22;15806;53.548;9.964;2023-12-20T04:25:33;9.60;99.90
28614;DHT22;15806;53.548;9.964;2023-12-20T04:27:14;9.70;99.90
28614;DHT22;15806;53.548;9.964;2023-12-20T04:28:54;9.70;99.90
28614;DHT22;15806;53.548;9.964;2023-12-20T04:30:35;9.60;99.90
28614;DHT22;15806;53.548;9.964;2023-12-20T04:32:15;9.60;99.90
28614;DHT22;15806;53.548;9.964;2023-12-20T04:33:56;9.70;99.90
28614;DHT22;15806;53.548;9.964;2023-12-20T04:35:36;9.80;99.90
28614;DHT22;15806;53.548;9.964;2023-12-20T04:37:17;9.80;99.90
28614;DHT22;15806;53.548;9.964;2023-12-20T04:38:57;9.80;99.90
28614;DHT22;15806;53.548;9.964;2023-12-20T04:40:38;9.80;99.90
28614;DHT22;15806;53.548;9.964;2023-12-20T04:42:18;9.80;99.90
28614;DHT22;15806;53.548;9.964;2023-12-20T04:43:59;9.80;99.90
28614;DHT22;15806;53.548;9.964;2023-12-20T04:45:39;9.80;99.90
28614;DHT22;15806;53.548;9.964;2023-12-20T04:47:20;9.80;99.90
28614;DHT22;15806;53.548;9.964;2023-12-20T04:49:00;9.80;99.90
28614;DHT22;15806;53.548;9.964;2023-12-20T04:50:41;9.70;99.90
28614;DHT22;15806;53.548;9.964;2023-12-20T04:52:22;9.80;99.90
28614;DHT22;15806;53.548;9.964;2023-12-20T04:54:02;9.80;99.90
28614;DHT22;15806;53.548;9.964;2023-12-20T04:55:43;9.70;99.90
28614;DHT22;15806;53.548;9.964;2023-12-20T04:57:23;9.70;99.90
28614;DHT22;15806;53.548;9.964;2023-12-20T04:59:04;9.70;99.90
28614;DHT22;15806;53.548;9.964;2023-12-20T05:00:44;9.60;99.90
28614;DHT22;15806;53.548;9.964;2023-12-20T05:02:25;9.70;99.90
28614;DHT22;15806;53.548;9.964;2023-12-20T05:04:05;9.60;99.90
28614;DHT22;15806;53.548;9.964;2023-12-20T05:05:46;9.70;99.90
28614;DHT22;15806;53.548;9.964;2023-12-20T05:07:26;9.60;99.90
28614;DHT22;15806;53.548;9.964;2023-12-20T05:09:07;9.60;99.90
28614;DHT22;15806;53.548;9.964;2023-12-20T05:10:48;9.60;99.90
28614;DHT22;15806;53.548;9.964;2023-12-20T05:12:28;9.60;99.90
28614;DHT22;15806;53.548;9.964;2023-12-20T05:14:09;9.60;99.90
28614;DHT22;15806;53.548;9.964;2023-12-20T05:15:49;9.60;99.90
28614;DHT22;15806;53.548;9.964;2023-12-20T05:17:30;9.60;99.90
28614;DHT22;15806;53.548;9.964;2023-12-20T05:19:10;9.60;99.90
28614;DHT22;15806;53.548;9.964;2023-12-20T05:20:51;9.60;99.90
28614;DHT22;15806;53.548;9.964;2023-12-20T05:22:32;9.60;99.90
28614;DHT22;15806;53.548;9.964;2023-12-20T05:24:12;9.50;99.90
28614;DHT22;15806;53.548;9.964;2023-12-20T05:25:53;9.50;99.90
28614;DHT22;15806;53.548;9.964;2023-12-20T05:27:33;9.50;99.90
28614;DHT22;15806;53.548;9.964;2023-12-20T05:29:14;9.40;99.90
28614;DHT22;15806;53.548;9.964;2023-12-20T05:30:54;9.40;99.90
28614;DHT22;15806;53.548;9.964;2023-12-20T05:32:35;9.40;99.90
28614;DHT22;15806;53.548;9.964;2023-12-20T05:34:16;9.50;99.90
28614;DHT22;15806;53.548;9.964;2023-12-20T05:35:56;9.50;99.90
28614;DHT22;15806;53.548;9.964;2023-12-20T05:37:37;9.40;99.90
28614;DHT22;15806;53.548;9.964;2023-12-20T05:39:17;9.40;99.90
28614;DHT22;15806;53.548;9.964;2023-12-20T05:40:58;9.40;99.90
28614;DHT22;15806;53.548;9.964;2023-12-20T05:42:38;9.40;99.90
28614;DHT22;15806;53.548;9.964;2023-12-20T05:44:19;9.40;99.90
28614;DHT22;15806;53.548;9.964;2023-12-20T05:45:59;9.40;99.90
28614;DHT22;15806;53.548;9.964;2023-12-20T05:47:40;9.50;99.90
28614;DHT22;15806;53.548;9.964;2023-12-20T05:49:20;9.50;99.90
28614;DHT22;15806;53.548;9.964;2023-12-20T05:51:01;9.50;99.90
28614;DHT22;15806;53.548;9.964;2023-12-20T05:52:41;9.60;99.90
28614;DHT22;15806;53.548;9.964;2023-12-20T05:54:22;9.60;99.90
28614;DHT22;15806;53.548;9.964;2023-12-20T05:56:04;9.60;99.90
28614;DHT22;15806;53.548;9.964;2023-12-20T05:57:44;9.60;99.90
28614;DHT22;15806;53.548;9.964;2023-12-20T05:59:25;9.70;99.90
28614;DHT22;15806;53.548;9.964;2023-12-20T06:01:05;9.70;99.90
28614;DHT22;15806;53.548;9.964;2023-12-20T06:02:46;9.80;99.90
28614;DHT22;15806;53.548;9.964;2023-12-20T06:04:26;9.80;99.90
28614;DHT22;15806;53.548;9.964;2023-12-20T06:06:07;9.80;99.90
28614;DHT22;15806;53.548;9.964;2023-12-20T06:07:48;9.70;99.90
28614;DHT22;15806;53.548;9.964;2023-12-20T06:09:28;9.90;99.90
28614;DHT22;15806;53.548;9.964;2023-12-20T06:11:09;9.90;99.90
28614;DHT22;15806;53.548;9.964;2023-12-20T06:12:49;9.90;99.90
28614;DHT22;15806;53.548;9.964;2023-12-20T06:14:30;9.90;99.90
28614;DHT22;15806;53.548;9.964;2023-12-20T06:16:10;9.90;99.90
28614;DHT22;15806;53.548;9.964;2023-12-20T06:17:51;9.80;99.90
28614;DHT22;15806;53.548;9.964;2023-12-20T06:19:31;9.80;99.90
28614;DHT22;15806;53.548;9.964;2023-12-20T06:21:12;9.80;99.90
28614;DHT22;15806;53.548;9.964;2023-12-20T06:22:52;9.70;99.90
28614;DHT22;15806;53.548;9.964;2023-12-20T06:24:33;9.70;99.90
28614;DHT22;15806;53.548;9.964;2023-12-20T06:26:13;9.60;99.90
28614;DHT22;15806;53.548;9.964;2023-12-20T06:27:54;9.60;99.90
28614;DHT22;15806;53.548;9.964;2023-12-20T06:29:34;9.50;99.90
28614;DHT22;15806;53.548;9.964;2023-12-20T06:31:15;9.40;99.90
28614;DHT22;15806;53.548;9.964;2023-12-20T06:32:55;9.50;99.90
28614;DHT22;15806;53.548;9.964;2023-12-20T06:34:35;9.50;99.90
28614;DHT22;15806;53.548;9.964;2023-12-20T06:36:16;9.40;99.90
28614;DHT22;15806;53.548;9.964;2023-12-20T06:37:56;9.40;99.90
28614;DHT22;15806;53.548;9.964;2023-12-20T06:39:37;9.30;99.90
28614;DHT22;15806;53.548;9.964;2023-12-20T06:41:18;9.20;99.90
28614;DHT22;15806;53.548;9.964;2023-12-20T06:42:58;9.20;99.90
28614;DHT22;15806;53.548;9.964;2023-12-20T06:44:39;9.20;99.90
28614;DHT22;15806;53.548;9.964;2023-12-20T06:46:19;9.30;99.90
28614;DHT22;15806;53.548;9.964;2023-12-20T06:48:00;9.20;99.90
28614;DHT22;15806;53.548;9.964;2023-12-20T06:49:40;9.20;99.90
28614;DHT22;15806;53.548;9.964;2023-12-20T06:51:21;9.20;99.90
28614;DHT22;15806;53.548;9.964;2023-12-20T06:53:01;9.30;99.90
28614;DHT22;15806;53.548;9.964;2023-12-20T06:54:42;9.20;99.90
28614;DHT22;15806;53.548;9.964;2023-12-20T06:56:22;9.20;99.90
28614;DHT22;15806;53.548;9.964;2023-12-20T06:58:03;9.30;99.90
28614;DHT22;15806;53.548;9.964;2023-12-20T06:59:43;9.30;99.90
28614;DHT22;15806;53.548;9.964;2023-12-20T07:01:24;9.30;99.90
28614;DHT22;15806;53.548;9.964;2023-12-20T07:03:04;9.30;99.90
28614;DHT22;15806;53.548;9.964;2023-12-20T07:04:45;9.30;99.90
28614;DHT22;15806;53.548;9.964;2023-12-20T07:06:25;9.30;99.90
28614;DHT22;15806;53.548;9.964;2023-12-20T07:08:06;9.20;99.90
28614;DHT22;15806;53.548;9.964;2023-12-20T07:09:47;9.30;99.90
28614;DHT22;15806;53.548;9.964;2023-12-20T07:11:27;9.20;99.90
28614;DHT22;15806;53.548;9.964;2023-12-20T07:13:08;9.30;99.90
28614;DHT22;15806;53.548;9.964;2023-12-20T07:14:48;9.30;99.90
28614;DHT22;15806;53.548;9.964;2023-12-20T07:16:29;9.30;99.90
28614;DHT22;15806;53.548;9.964;2023-12-20T07:18:09;9.30;99.90
28614;DHT22;15806;53.548;9.964;2023-12-20T07:19:50;9.30;99.90
28614;DHT22;15806;53.548;9.964;2023-12-20T07:21:30;9.30;99.90
28614;DHT22;15806;53.548;9.964;2023-12-20T07:23:11;9.40;99.90
28614;DHT22;15806;53.548;9.964;2023-12-20T07:24:51;9.30;99.90
28614;DHT22;15806;53.548;9.964;2023-12-20T07:26:32;9.30;99.90
28614;DHT22;15806;53.548;9.964;2023-12-20T07:28:12;9.30;99.90
28614;DHT22;15806;53.548;9.964;2023-12-20T07:29:53;9.30;99.90
28614;DHT22;15806;53.548;9.964;2023-12-20T07:31:33;9.30;99.90
28614;DHT22;15806;53.548;9.964;2023-12-20T07:33:14;9.30;99.90
28614;DHT22;15806;53.548;9.964;2023-12-20T07:34:55;9.30;99.90
28614;DHT22;15806;53.548;9.964;2023-12-20T07:36:35;9.30;99.90
28614;DHT22;15806;53.548;9.964;2023-12-20T07:38:16;9.20;99.90
28614;DHT22;15806;53.548;9.964;2023-12-20T07:39:56;9.30;99.90
28614;DHT22;15806;53.548;9.964;2023-12-20T07:41:37;9.30;99.90
28614;DHT22;15806;53.548;9.964;2023-12-20T07:43:17;9.10;99.90
28614;DHT22;15806;53.548;9.964;2023-12-20T07:44:58;9.20;99.90
28614;DHT22;15806;53.548;9.964;2023-12-20T07:46:39;9.20;99.90
28614;DHT22;15806;53.548;9.964;2023-12-20T07:48:19;9.20;99.90
28614;DHT22;15806;53.548;9.964;2023-12-20T07:50:00;9.20;99.90
28614;DHT22;15806;53.548;9.964;2023-12-20T07:51:40;9.20;99.90
28614;DHT22;15806;53.548;9.964;2023-12-20T07:53:21;9.20;99.90
28614;DHT22;15806;53.548;9.964;2023-12-20T07:55:01;9.20;99.90
28614;DHT22;15806;53.548;9.964;2023-12-20T07:56:42;9.20;99.90
28614;DHT22;15806;53.548;9.964;2023-12-20T07:58:22;9.20;99.90
28614;DHT22;15806;53.548;9.964;2023-12-20T08:00:03;9.20;99.90
28614;DHT22;15806;53.548;9.964;2023-12-20T08:01:44;9.30;99.90
28614;DHT22;15806;53.548;9.964;2023-12-20T08:03:24;9.20;99.90
28614;DHT22;15806;53.548;9.964;2023-12-20T08:05:05;9.20;99.90
28614;DHT22;15806;53.548;9.964;2023-12-20T08:06:45;9.20;99.90
28614;DHT22;15806;53.548;9.964;2023-12-20T08:08:26;9.20;99.90
28614;DHT22;15806;53.548;9.964;2023-12-20T08:10:07;9.30;99.90
28614;DHT22;15806;53.548;9.964;2023-12-20T08:11:48;9.30;99.90
28614;DHT22;15806;53.548;9.964;2023-12-20T08:13:28;9.20;99.90
28614;DHT22;15806;53.548;9.964;2023-12-20T08:15:09;9.30;99.90
28614;DHT22;15806;53.548;9.964;2023-12-20T08:16:50;9.20;99.90
28614;DHT22;15806;53.548;9.964;2023-12-20T08:18:30;9.20;99.90
28614;DHT22;15806;53.548;9.964;2023-12-20T08:20:11;9.20;99.90
28614;DHT22;15806;53.548;9.964;2023-12-20T08:21:51;9.20;99.90
28614;DHT22;15806;53.548;9.964;2023-12-20T08:23:32;9.20;99.90
28614;DHT22;15806;53.548;9.964;2023-12-20T08:25:12;9.10;99.90
28614;DHT22;15806;53.548;9.964;2023-12-20T08:26:53;9.10;99.90
28614;DHT22;15806;53.548;9.964;2023-12-20T08:28:33;9.10;99.90
28614;DHT22;15806;53.548;9.964;2023-12-20T08:30:14;9.10;99.90
28614;DHT22;15806;53.548;9.964;2023-12-20T08:31:55;9.10;99.90
28614;DHT22;15806;53.548;9.964;2023-12-20T08:33:35;9.10;99.90
28614;DHT22;15806;53.548;9.964;2023-12-20T08:35:16;9.20;99.90
28614;DHT22;15806;53.548;9.964;2023-12-20T08:36:56;9.20;99.90
28614;DHT22;15806;53.548;9.964;2023-12-20T08:38:37;9.20;99.90
28614;DHT22;15806;53.548;9.964;2023-12-20T08:40:18;9.20;99.90
28614;DHT22;15806;53.548;9.964;2023-12-20T08:41:58;9.20;99.90
28614;DHT22;15806;53.548;9.964;2023-12-20T08:43:39;9.20;99.90
28614;DHT22;15806;53.548;9.964;2023-12-20T08:45:19;9.20;99.90
28614;DHT22;15806;53.548;9.964;2023-12-20T08:47:00;9.20;99.90
28614;DHT22;15806;53.548;9.964;2023-12-20T08:48:40;9.20;99.90
28614;DHT22;15806;53.548;9.964;2023-12-20T08:50:21;9.20;99.90
28614;DHT22;15806;53.548;9.964;2023-12-20T08:52:01;9.20;99.90
28614;DHT22;15806;53.548;9.964;2023-12-20T08:53:42;9.20;99.90
28614;DHT22;15806;53.548;9.964;2023-12-20T08:55:22;9.20;99.90
28614;DHT22;15806;53.548;9.964;2023-12-20T08:57:03;9.20;99.90
28614;DHT22;15806;53.548;9.964;2023-12-20T08:58:45;9.20;99.90
28614;DHT22;15806;53.548;9.964;2023-12-20T09:00:25;9.20;99.90
28614;DHT22;15806;53.548;9.964;2023-12-20T09:02:06;9.20;99.90
28614;DHT22;15806;53.548;9.964;2023-12-20T09:03:46;9.20;99.90
28614;DHT22;15806;53.548;9.964;2023-12-20T09:05:27;9.40;99.90
28614;DHT22;15806;53.548;9.964;2023-12-20T09:07:29;9.30;99.90
28614;DHT22;15806;53.548;9.964;2023-12-20T09:09:09;9.30;99.90
28614;DHT22;15806;53.548;9.964;2023-12-20T09:10:50;9.30;99.90
28614;DHT22;15806;53.548;9.964;2023-12-20T09:12:31;9.70;99.90
28614;DHT22;15806;53.548;9.964;2023-12-20T09:14:11;9.30;99.90
28614;DHT22;15806;53.548;9.964;2023-12-20T09:15:51;9.50;99.90
28614;DHT22;15806;53.548;9.964;2023-12-20T09:17:32;9.80;99.90
28614;DHT22;15806;53.548;9.964;2023-12-20T09:19:12;9.90;99.90
28614;DHT22;15806;53.548;9.964;2023-12-20T09:20:53;9.60;99.90
28614;DHT22;15806;53.548;9.964;2023-12-20T09:22:34;9.60;99.90
28614;DHT22;15806;53.548;9.964;2023-12-20T09:24:14;9.70;99.90
28614;DHT22;15806;53.548;9.964;2023-12-20T09:25:55;10.00;99.90
28614;DHT22;15806;53.548;9.964;2023-12-20T09:27:35;9.60;99.90
28614;DHT22;15806;53.548;9.964;2023-12-20T09:29:16;10.20;99.90
28614;DHT22;15806;53.548;9.964;2023-12-20T09:30:56;10.10;99.90
28614;DHT22;15806;53.548;9.964;2023-12-20T09:32:37;10.30;99.90
28614;DHT22;15806;53.548;9.964;2023-12-20T09:34:17;10.10;99.90
28614;DHT22;15806;53.548;9.964;2023-12-20T09:35:58;9.80;99.90
28614;DHT22;15806;53.548;9.964;2023-12-20T09:37:39;10.10;99.90
28614;DHT22;15806;53.548;9.964;2023-12-20T09:39:20;9.60;99.90
28614;DHT22;15806;53.548;9.964;2023-12-20T09:41:01;10.30;99.90
28614;DHT22;15806;53.548;9.964;2023-12-20T09:44:28;10.30;99.90
28614;DHT22;15806;53.548;9.964;2023-12-20T09:46:10;9.70;99.90
28614;DHT22;15806;53.548;9.964;2023-12-20T09:47:55;10.20;99.90
28614;DHT22;15806;53.548;9.964;2023-12-20T09:49:36;10.10;99.90
28614;DHT22;15806;53.548;9.964;2023-12-20T09:51:18;9.70;99.90
28614;DHT22;15806;53.548;9.964;2023-12-20T09:53:01;9.70;99.90
28614;DHT22;15806;53.548;9.964;2023-12-20T09:54:43;9.30;99.90
28614;DHT22;15806;53.548;9.964;2023-12-20T09:56:25;9.00;99.90
28614;DHT22;15806;53.548;9.964;2023-12-20T09:58:05;8.80;99.90
28614;DHT22;15806;53.548;9.964;2023-12-20T09:59:46;8.60;99.90
28614;DHT22;15806;53.548;9.964;2023-12-20T10:01:27;8.60;99.90
28614;DHT22;15806;53.548;9.964;2023-12-20T10:03:09;8.90;99.90
28614;DHT22;15806;53.548;9.964;2023-12-20T10:04:50;8.90;99.90
28614;DHT22;15806;53.548;9.964;2023-12-20T10:06:30;8.80;99.90
28614;DHT22;15806;53.548;9.964;2023-12-20T10:08:11;8.30;99.90
28614;DHT22;15806;53.548;9.964;2023-12-20T10:09:54;8.20;99.90
28614;DHT22;15806;53.548;9.964;2023-12-20T10:11:36;8.50;99.90
28614;DHT22;15806;53.548;9.964;2023-12-20T10:13:16;8.50;99.90
28614;DHT22;15806;53.548;9.964;2023-12-20T10:14:57;8.30;99.90
28614;DHT22;15806;53.548;9.964;2023-12-20T10:16:38;8.20;99.90
28614;DHT22;15806;53.548;9.964;2023-12-20T10:18:18;8.40;99.90
28614;DHT22;15806;53.548;9.964;2023-12-20T10:20:00;8.10;99.90
28614;DHT22;15806;53.548;9.964;2023-12-20T10:21:41;8.20;99.90
28614;DHT22;15806;53.548;9.964;2023-12-20T10:23:22;8.40;99.90
28614;DHT22;15806;53.548;9.964;2023-12-20T10:25:03;8.20;99.90
28614;DHT22;15806;53.548;9.964;2023-12-20T10:26:44;8.20;99.90
28614;DHT22;15806;53.548;9.964;2023-12-20T10:28:24;7.90;99.90
28614;DHT22;15806;53.548;9.964;2023-12-20T10:30:05;8.10;99.90
28614;DHT22;15806;53.548;9.964;2023-12-20T10:31:46;8.30;99.90
28614;DHT22;15806;53.548;9.964;2023-12-20T10:33:28;8.00;99.90
28614;DHT22;15806;53.548;9.964;2023-12-20T10:35:09;8.10;99.90
28614;DHT22;15806;53.548;9.964;2023-12-20T10:36:49;8.30;99.90
28614;DHT22;15806;53.548;9.964;2023-12-20T10:38:30;8.00;99.90
28614;DHT22;15806;53.548;9.964;2023-12-20T10:40:11;8.00;99.90
28614;DHT22;15806;53.548;9.964;2023-12-20T10:41:52;8.00;99.90
28614;DHT22;15806;53.548;9.964;2023-12-20T10:43:33;8.00;99.90